createdAt,value
2023-03-16T00:03:02.675Z,6.88
2023-03-16T00:07:05.954Z,3.55
2023-03-16T00:11:07.761Z,2.67
2023-03-16T00:15:10.015Z,4.97
2023-03-16T00:19:11.918Z,3.88
2023-03-16T00:23:13.693Z,5.13
2023-03-16T00:27:17.371Z,2.80
2023-03-16T00:31:19.230Z,2.15
2023-03-16T00:35:21.728Z,2.33
2023-03-16T00:39:23.506Z,2.38
2023-03-16T00:43:27.387Z,1.95
2023-03-16T00:47:33.893Z,1.73
2023-03-16T00:51:35.941Z,1.52
2023-03-16T00:55:38.275Z,1.50
2023-03-16T00:59:40.993Z,1.50
2023-03-16T01:03:43.004Z,1.63
2023-03-16T01:07:45.320Z,1.73
2023-03-16T01:11:51.497Z,1.40
2023-03-16T01:15:53.812Z,1.75
2023-03-16T01:19:55.583Z,1.90
2023-03-16T01:23:57.370Z,3.78
2023-03-16T01:27:59.222Z,2.10
2023-03-16T01:32:01.805Z,1.88
2023-03-16T01:36:10.248Z,2.10
2023-03-16T01:40:24.359Z,1.67
2023-03-16T01:44:32.739Z,2.40
2023-03-16T01:48:45.201Z,2.63
2023-03-16T01:52:47.308Z,1.92
2023-03-16T01:56:56.732Z,3.30
2023-03-16T02:00:59.049Z,2.10
2023-03-16T02:05:02.108Z,2.00
2023-03-16T02:09:06.434Z,2.33
2023-03-16T02:13:09.174Z,1.73
2023-03-16T02:17:12.311Z,2.72
2023-03-16T02:21:30.116Z,2.03
2023-03-16T02:26:07.800Z,3.25
2023-03-16T02:30:18.341Z,2.25
2023-03-16T02:34:34.479Z,2.03
2023-03-16T02:38:37.076Z,3.50
2023-03-16T02:42:39.281Z,2.83
2023-03-16T02:46:43.612Z,2.58
2023-03-16T02:50:48.709Z,2.40
2023-03-16T02:54:50.933Z,3.53
2023-03-16T02:58:52.884Z,2.47
2023-03-16T03:02:55.991Z,3.83
2023-03-16T03:07:04.051Z,4.40
2023-03-16T03:11:10.224Z,3.28
2023-03-16T03:15:12.165Z,2.15
2023-03-16T03:19:26.932Z,3.80
2023-03-16T03:23:28.856Z,3.13
2023-03-16T03:27:30.685Z,2.15
2023-03-16T03:31:32.651Z,1.98
2023-03-16T03:35:34.516Z,2.65
2023-03-16T03:39:36.450Z,2.45
2023-03-16T03:43:38.404Z,2.60
2023-03-16T03:47:43.872Z,3.03
2023-03-16T03:51:51.347Z,2.40
2023-03-16T03:55:58.908Z,2.78
2023-03-16T04:00:01.062Z,2.53
2023-03-16T04:04:14.998Z,3.28
2023-03-16T04:08:17.102Z,3.08
2023-03-16T04:12:19.864Z,3.13
2023-03-16T04:16:22.584Z,3.42
2023-03-16T04:20:29.888Z,4.22
2023-03-16T04:24:34.504Z,4.10
2023-03-16T04:28:37.139Z,4.38
2023-03-16T04:32:41.820Z,7.55
2023-03-16T04:36:45.560Z,5.65
2023-03-16T04:40:48.137Z,5.28
2023-03-16T04:48:59.656Z,3.70
2023-03-16T04:53:04.877Z,2.88
2023-03-16T04:57:08.674Z,3.80
2023-03-16T05:01:20.888Z,3.10
2023-03-16T05:05:26.118Z,2.33
2023-03-16T05:09:28.595Z,1.85
2023-03-16T05:13:31.153Z,3.47
2023-03-16T05:17:35.341Z,2.88
2023-03-16T05:21:38.817Z,3.17
2023-03-16T05:25:46.072Z,2.37
2023-03-16T05:29:50.860Z,2.60
2023-03-16T05:33:54.105Z,2.72
2023-03-16T05:37:57.697Z,2.78
2023-03-16T05:42:00.007Z,3.38
2023-03-16T05:46:22.550Z,3.22
2023-03-16T05:50:26.910Z,3.08
2023-03-16T05:54:29.433Z,4.22
2023-03-16T05:58:34.162Z,2.75
2023-03-16T06:02:41.189Z,5.95
2023-03-16T06:06:44.000Z,4.90
2023-03-16T06:10:53.762Z,3.67
2023-03-16T06:14:56.375Z,7.57
2023-03-16T06:18:59.918Z,6.85
2023-03-16T06:23:04.608Z,5.87
2023-03-16T06:27:08.219Z,6.53
2023-03-16T06:31:21.551Z,10.57
2023-03-16T06:35:23.809Z,10.40
2023-03-16T06:39:42.526Z,8.10
2023-03-16T06:43:46.172Z,7.00
2023-03-16T06:47:48.836Z,6.68
2023-03-16T06:51:50.809Z,5.03
2023-03-16T06:55:53.733Z,6.53
2023-03-16T06:59:56.078Z,11.70
2023-03-16T07:03:57.849Z,8.40
2023-03-16T07:08:04.995Z,4.63
2023-03-16T07:12:07.444Z,6.07
2023-03-16T07:16:09.290Z,6.35
2023-03-16T07:20:12.811Z,7.60
2023-03-16T07:24:15.446Z,5.25
2023-03-16T07:28:17.750Z,4.03
2023-03-16T07:32:19.753Z,4.57
2023-03-16T07:36:22.312Z,5.28
2023-03-16T07:40:30.291Z,6.07
2023-03-16T07:44:40.481Z,9.90
2023-03-16T07:48:44.151Z,7.70
2023-03-16T07:52:46.844Z,6.47
2023-03-16T07:56:50.000Z,6.45
2023-03-16T08:01:07.596Z,8.65
2023-03-16T08:05:11.100Z,7.80
2023-03-16T08:09:15.640Z,8.68
2023-03-16T08:13:19.276Z,10.25
2023-03-16T08:17:21.732Z,10.13
2023-03-16T08:21:24.984Z,8.07
2023-03-16T08:25:28.752Z,8.05
2023-03-16T08:29:40.698Z,8.80
2023-03-16T08:33:48.612Z,8.02
2023-03-16T08:37:54.392Z,8.68
2023-03-16T08:41:57.308Z,11.50
2023-03-16T08:46:06.783Z,9.48
2023-03-16T08:50:20.852Z,7.95
2023-03-16T08:54:22.963Z,7.22
2023-03-16T08:58:24.747Z,7.65
2023-03-16T09:02:26.846Z,7.03
2023-03-16T09:06:28.850Z,6.95
2023-03-16T09:10:32.394Z,6.40
2023-03-16T09:14:37.177Z,4.18
2023-03-16T09:18:39.986Z,5.15
2023-03-16T09:22:42.012Z,5.40
2023-03-16T09:26:44.038Z,5.72
2023-03-16T09:30:45.934Z,4.93
2023-03-16T09:34:47.929Z,3.30
2023-03-16T09:38:50.510Z,3.28
2023-03-16T09:43:02.345Z,3.60
2023-03-16T09:47:06.170Z,4.05
2023-03-16T09:51:18.729Z,3.92
2023-03-16T09:55:28.969Z,3.63
2023-03-16T09:59:30.959Z,4.32
2023-03-16T10:03:46.320Z,3.83
2023-03-16T10:08:12.809Z,3.25
2023-03-16T10:12:16.033Z,3.17
2023-03-16T10:16:34.343Z,3.58
2023-03-16T10:20:36.679Z,3.53
2023-03-16T10:24:48.659Z,2.63
2023-03-16T10:28:53.017Z,2.90
2023-03-16T10:32:56.469Z,3.17
2023-03-16T10:36:58.415Z,3.00
2023-03-16T10:41:00.757Z,3.60
2023-03-16T10:45:03.525Z,3.60
2023-03-16T10:49:05.803Z,2.85
2023-03-16T10:53:19.720Z,4.45
2023-03-16T10:57:36.067Z,3.75
2023-03-16T11:01:39.153Z,3.00
2023-03-16T11:05:41.874Z,3.28
2023-03-16T11:09:44.838Z,2.55
2023-03-16T11:13:48.516Z,2.28
2023-03-16T11:17:53.572Z,2.55
2023-03-16T11:22:04.313Z,2.35
2023-03-16T11:26:17.621Z,2.22
2023-03-16T11:30:30.987Z,1.70
2023-03-16T11:34:34.274Z,2.72
2023-03-16T11:38:47.023Z,1.73
2023-03-16T11:43:05.773Z,2.30
2023-03-16T11:47:26.846Z,1.90
2023-03-16T11:52:33.427Z,2.55
2023-03-16T11:56:42.189Z,1.60
2023-03-16T12:01:00.305Z,1.77
2023-03-16T12:05:32.475Z,1.77
2023-03-16T12:09:52.740Z,1.70
2023-03-16T12:13:57.558Z,1.45
2023-03-16T12:18:24.042Z,2.35
2023-03-16T12:22:34.993Z,1.90
2023-03-16T12:26:42.139Z,1.77
2023-03-16T12:30:53.463Z,2.15
2023-03-16T12:35:15.997Z,2.10
2023-03-16T12:39:23.707Z,2.17
2023-03-16T12:44:01.375Z,2.00
2023-03-16T12:48:19.889Z,1.90
2023-03-16T12:52:22.523Z,2.10
2023-03-16T12:56:31.400Z,2.15
2023-03-16T13:00:36.027Z,2.03
2023-03-16T13:04:42.862Z,2.20
2023-03-16T13:08:50.659Z,2.30
2023-03-16T13:12:52.503Z,2.50
2023-03-16T13:17:06.561Z,2.50
2023-03-16T13:21:22.970Z,2.33
2023-03-16T13:25:30.945Z,2.60
2023-03-16T13:29:33.468Z,2.80
2023-03-16T13:33:40.870Z,2.97
2023-03-16T13:37:43.865Z,2.80
2023-03-16T13:41:57.611Z,3.60
2023-03-16T13:45:59.600Z,3.70
2023-03-16T13:50:01.443Z,3.33
2023-03-16T13:54:21.774Z,3.72
2023-03-16T13:58:26.028Z,3.97
2023-03-16T14:02:29.312Z,4.28
2023-03-16T14:06:34.199Z,4.10
2023-03-16T14:10:37.788Z,4.05
2023-03-16T14:14:41.414Z,3.70
2023-03-16T14:18:46.400Z,3.80
2023-03-16T14:22:52.308Z,3.67
2023-03-16T14:26:54.185Z,4.07
2023-03-16T14:31:07.470Z,2.60
2023-03-16T14:35:18.895Z,3.20
2023-03-16T14:39:29.058Z,3.30
2023-03-16T14:43:34.053Z,3.10
2023-03-16T14:47:41.963Z,2.60
2023-03-16T14:51:45.698Z,3.20
2023-03-16T14:55:48.182Z,2.40
2023-03-16T14:59:50.086Z,1.80
2023-03-16T15:03:52.340Z,2.10
2023-03-16T15:07:55.633Z,2.00
2023-03-16T15:11:58.228Z,2.10
2023-03-16T15:16:05.509Z,1.90
2023-03-16T15:20:08.093Z,1.67
2023-03-16T15:24:12.153Z,1.70
2023-03-16T15:28:17.525Z,2.22
2023-03-16T15:32:19.368Z,2.13
2023-03-16T15:36:22.417Z,1.70
2023-03-16T15:40:29.363Z,1.60
2023-03-16T15:44:31.705Z,1.77
2023-03-16T15:48:34.260Z,1.70
2023-03-16T15:52:39.418Z,1.70
2023-03-16T15:56:53.814Z,1.80
2023-03-16T16:00:59.137Z,2.35
2023-03-16T16:05:01.279Z,1.70
2023-03-16T16:09:05.965Z,1.45
2023-03-16T16:13:43.037Z,1.30
2023-03-16T16:18:02.732Z,1.25
2023-03-16T16:22:13.991Z,1.10
2023-03-16T16:26:18.726Z,1.13
2023-03-16T16:30:29.291Z,1.60
2023-03-16T16:34:31.171Z,1.55
2023-03-16T16:38:33.574Z,1.42
2023-03-16T16:42:35.720Z,1.70
2023-03-16T16:46:42.503Z,1.05
2023-03-16T16:50:44.282Z,1.58
2023-03-16T16:54:46.143Z,1.40
2023-03-16T16:58:47.890Z,1.30
2023-03-16T17:02:53.647Z,1.08
2023-03-16T17:06:58.959Z,1.35
2023-03-16T17:11:00.795Z,1.10
2023-03-16T17:15:02.833Z,1.33
2023-03-16T17:19:04.749Z,1.15
2023-03-16T17:23:23.962Z,1.10
2023-03-16T17:27:30.237Z,1.15
2023-03-16T17:31:36.617Z,3.33
2023-03-16T17:35:38.771Z,2.17
2023-03-16T17:39:41.587Z,1.30
2023-03-16T17:43:43.370Z,1.95
2023-03-16T17:47:45.280Z,1.40
2023-03-16T17:51:47.973Z,1.95
2023-03-16T17:55:49.949Z,1.85
2023-03-16T17:59:52.186Z,1.40
2023-03-16T18:03:54.017Z,1.88
2023-03-16T18:08:00.024Z,3.67
2023-03-16T18:12:02.063Z,2.05
2023-03-16T18:16:06.324Z,3.10
2023-03-16T18:20:23.534Z,1.83
2023-03-16T18:24:26.872Z,1.70
2023-03-16T18:28:30.791Z,2.03
2023-03-16T18:32:33.177Z,2.97
2023-03-16T18:36:38.071Z,2.13
2023-03-16T18:40:40.176Z,3.15
2023-03-16T18:44:42.305Z,3.00
2023-03-16T18:48:44.098Z,5.05
2023-03-16T18:52:46.322Z,3.05
2023-03-16T18:56:48.602Z,1.65
2023-03-16T19:00:58.613Z,1.83
2023-03-16T19:05:03.096Z,2.15
2023-03-16T19:09:08.856Z,2.33
2023-03-16T19:13:17.260Z,1.48
2023-03-16T19:17:19.044Z,1.90
2023-03-16T19:21:24.991Z,1.60
2023-03-16T19:25:32.185Z,1.48
2023-03-16T19:29:35.273Z,1.77
2023-03-16T19:33:38.870Z,4.65
2023-03-16T19:37:40.639Z,1.77
2023-03-16T19:41:45.568Z,1.95
2023-03-16T19:45:48.948Z,1.60
2023-03-16T19:49:50.864Z,1.90
2023-03-16T19:53:52.882Z,1.50
2023-03-16T19:58:03.086Z,1.20
2023-03-16T20:02:24.224Z,1.30
2023-03-16T20:06:26.314Z,1.20
2023-03-16T20:10:30.218Z,1.30
2023-03-16T20:14:33.548Z,1.85
2023-03-16T20:18:35.344Z,1.33
2023-03-16T20:22:37.395Z,2.33
2023-03-16T20:26:39.272Z,1.42
2023-03-16T20:30:41.448Z,1.30
2023-03-16T20:34:43.249Z,1.30
2023-03-16T20:38:45.680Z,1.50
2023-03-16T20:42:48.561Z,1.50
2023-03-16T20:46:50.528Z,1.27
2023-03-16T20:50:53.871Z,1.80
2023-03-16T20:54:55.677Z,1.20
2023-03-16T20:58:59.037Z,1.38
2023-03-16T21:03:05.006Z,1.33
2023-03-16T21:07:06.928Z,1.50
2023-03-16T21:11:21.584Z,1.38
2023-03-16T21:15:26.580Z,1.95
2023-03-16T21:19:28.386Z,1.65
2023-03-16T21:23:30.314Z,3.20
2023-03-16T21:27:34.203Z,1.48
2023-03-16T21:31:36.280Z,1.55
2023-03-16T21:35:38.180Z,2.58
2023-03-16T21:39:40.511Z,2.10
2023-03-16T21:43:43.082Z,1.85
2023-03-16T21:47:45.944Z,1.70
2023-03-16T21:51:50.154Z,1.92
2023-03-16T21:55:53.457Z,1.75
2023-03-16T21:59:55.310Z,1.70
2023-03-16T22:04:01.761Z,1.60
2023-03-16T22:08:35.952Z,2.97
2023-03-16T22:12:37.732Z,1.52
2023-03-16T22:16:40.642Z,1.88
2023-03-16T22:20:42.720Z,2.17
2023-03-16T22:24:44.589Z,1.75
2023-03-16T22:28:46.653Z,2.22
2023-03-16T22:32:54.470Z,1.70
2023-03-16T22:36:56.970Z,2.95
2023-03-16T22:40:59.668Z,1.70
2023-03-16T22:45:02.214Z,2.15
2023-03-16T22:49:14.458Z,2.42
2023-03-16T22:53:21.390Z,4.90
2023-03-16T22:57:23.336Z,3.65
2023-03-16T23:01:35.280Z,2.58
2023-03-16T23:05:37.817Z,1.80
2023-03-16T23:09:39.789Z,2.67
2023-03-16T23:13:42.421Z,4.07
2023-03-16T23:17:44.432Z,2.30
2023-03-16T23:21:46.500Z,4.10
2023-03-16T23:25:48.457Z,3.53
2023-03-16T23:29:50.365Z,2.47
2023-03-16T23:33:52.152Z,2.97
2023-03-16T23:37:54.771Z,4.20
2023-03-16T23:41:57.326Z,4.47
2023-03-16T23:45:59.165Z,5.53
2023-03-16T23:50:00.988Z,2.15
2023-03-16T23:54:15.994Z,2.70
2023-03-16T23:58:18.544Z,2.00
